Time;durP1;ratioP1;P1;durP2;ratioP2;P2;SDS_P1;SDS_P2;PMS_P1;PMS_P2;Temp;Humidity;BMP_temperature;BMP_pressure;BME280_temperature;BME280_humidity;BME280_pressure;Samples;Min_cycle;Max_cycle;Signal;HPM_P1;HPM_P2
2021/09/17 00:00:43;;;;;;;4.20;3.63;;;15.70;99.90;;;;;;5074704;28;20201;-72
2021/09/17 00:03:12;;;;;;;4.07;3.40;;;15.60;99.90;;;;;;5074681;28;20225;-72
2021/09/17 00:05:40;;;;;;;4.03;3.63;;;15.60;99.90;;;;;;5074478;28;20307;-74
2021/09/17 00:08:09;;;;;;;4.15;3.45;;;15.60;99.90;;;;;;5074055;28;20240;-73
2021/09/17 00:10:36;;;;;;;4.18;3.78;;;15.50;99.90;;;;;;5074368;28;20208;-74
2021/09/17 00:13:05;;;;;;;4.38;3.97;;;15.50;99.90;;;;;;5074000;28;20221;-74
2021/09/17 00:15:33;;;;;;;4.90;4.07;;;15.50;99.90;;;;;;5074180;28;20207;-74
2021/09/17 00:18:01;;;;;;;4.53;3.97;;;15.50;99.90;;;;;;5074463;28;20283;-74
2021/09/17 00:20:30;;;;;;;4.50;4.10;;;15.50;99.90;;;;;;5074141;28;20307;-73
2021/09/17 00:22:58;;;;;;;5.88;4.38;;;15.50;99.90;;;;;;5074504;28;20197;-75
2021/09/17 00:25:26;;;;;;;4.88;4.47;;;15.50;99.90;;;;;;5073963;28;20209;-72
2021/09/17 00:27:54;;;;;;;6.80;4.63;;;15.50;99.90;;;;;;5073977;28;20296;-73
2021/09/17 00:30:23;;;;;;;5.30;4.80;;;15.50;99.90;;;;;;5074214;28;20239;-74
2021/09/17 00:32:51;;;;;;;5.75;4.80;;;15.50;99.90;;;;;;5074155;28;20236;-74
2021/09/17 00:35:19;;;;;;;5.20;4.70;;;15.50;99.90;;;;;;5074011;28;20204;-73
2021/09/17 00:37:48;;;;;;;5.63;4.97;;;15.50;99.90;;;;;;5074150;28;20254;-73
2021/09/17 00:40:16;;;;;;;5.57;4.80;;;15.50;99.90;;;;;;5073885;28;20291;-75
2021/09/17 00:42:44;;;;;;;7.07;4.90;;;15.60;99.90;;;;;;5073658;28;20207;-73
2021/09/17 00:45:13;;;;;;;5.80;5.18;;;15.60;99.90;;;;;;5073792;28;20296;-73
2021/09/17 00:47:42;;;;;;;5.40;4.90;;;15.60;99.90;;;;;;5073533;28;20883;-74
2021/09/17 00:50:13;;;;;;;5.35;4.85;;;15.60;99.90;;;;;;5073676;28;20292;-74
2021/09/17 00:52:41;;;;;;;7.65;6.10;;;15.60;99.90;;;;;;5073589;28;20232;-72
2021/09/17 00:55:11;;;;;;;9.30;6.20;;;15.60;99.90;;;;;;5073654;28;20295;-74
2021/09/17 00:57:40;;;;;;;7.68;6.13;;;15.60;99.90;;;;;;5073432;28;20221;-73
2021/09/17 01:00:11;;;;;;;6.68;6.07;;;15.70;99.90;;;;;;5073298;28;20671;-72
2021/09/17 01:02:39;;;;;;;7.63;6.13;;;15.60;99.90;;;;;;5073354;28;20920;-73
2021/09/17 01:05:11;;;;;;;6.53;5.93;;;15.60;99.90;;;;;;5073669;28;20193;-72
2021/09/17 01:07:39;;;;;;;7.18;6.28;;;15.60;99.90;;;;;;5073066;28;20232;-74
2021/09/17 01:10:07;;;;;;;7.13;5.75;;;15.60;99.90;;;;;;5073305;28;20204;-73
2021/09/17 01:12:37;;;;;;;7.32;6.25;;;15.60;99.90;;;;;;5073295;28;20279;-73
2021/09/17 01:15:08;;;;;;;6.75;6.03;;;15.60;99.90;;;;;;5073357;28;20209;-73
2021/09/17 01:17:38;;;;;;;8.07;6.82;;;15.60;99.90;;;;;;5072759;28;20272;-74
2021/09/17 01:20:08;;;;;;;7.88;6.60;;;15.60;99.90;;;;;;5073076;28;20205;-72
2021/09/17 01:22:38;;;;;;;8.70;7.10;;;15.60;99.90;;;;;;5073228;28;20308;-73
2021/09/17 01:25:06;;;;;;;7.10;6.40;;;15.60;99.90;;;;;;5072950;28;20197;-73
2021/09/17 01:27:34;;;;;;;7.88;6.40;;;15.60;99.90;;;;;;5072818;28;20202;-74
2021/09/17 01:30:04;;;;;;;9.27;7.07;;;15.60;99.90;;;;;;5073087;28;20207;-74
2021/09/17 01:32:32;;;;;;;6.90;6.20;;;15.60;99.90;;;;;;5073152;28;20307;-74
2021/09/17 01:35:00;;;;;;;6.93;6.22;;;15.50;99.90;;;;;;5072870;28;20217;-76
2021/09/17 01:37:28;;;;;;;7.65;6.88;;;15.50;99.90;;;;;;5072739;28;20291;-73
2021/09/17 01:39:57;;;;;;;7.50;6.80;;;15.50;99.90;;;;;;5072721;28;20287;-75
2021/09/17 01:42:25;;;;;;;7.68;6.78;;;15.50;99.90;;;;;;5072893;28;20296;-74
2021/09/17 01:44:53;;;;;;;9.27;7.90;;;15.40;99.90;;;;;;5064257;28;20207;-73
2021/09/17 01:47:21;;;;;;;10.00;8.30;;;15.40;99.90;;;;;;5072874;28;20201;-72
2021/09/17 01:49:49;;;;;;;8.90;7.78;;;15.30;99.90;;;;;;5072677;28;20204;-73
2021/09/17 01:52:17;;;;;;;9.00;7.53;;;15.30;99.90;;;;;;5072579;28;20286;-74
2021/09/17 01:54:45;;;;;;;12.05;7.35;;;15.30;99.90;;;;;;5072650;28;20316;-75
2021/09/17 01:57:14;;;;;;;8.90;7.93;;;15.30;99.90;;;;;;5072887;28;20201;-75
2021/09/17 01:59:42;;;;;;;8.80;7.88;;;15.30;99.90;;;;;;5072916;28;20205;-73
2021/09/17 02:02:10;;;;;;;10.70;8.55;;;15.40;99.90;;;;;;5073152;28;20283;-73
2021/09/17 02:04:38;;;;;;;9.20;8.10;;;15.30;99.90;;;;;;5072640;28;20201;-73
2021/09/17 02:07:06;;;;;;;8.73;7.82;;;15.30;99.90;;;;;;5072580;28;20228;-74
2021/09/17 02:09:34;;;;;;;9.02;7.75;;;15.30;99.90;;;;;;5072806;28;20204;-73
2021/09/17 02:12:01;;;;;;;10.68;8.80;;;15.30;99.90;;;;;;5072412;28;20200;-72
2021/09/17 02:14:31;;;;;;;11.45;8.77;;;15.30;99.90;;;;;;5072267;28;20788;-74
2021/09/17 02:16:58;;;;;;;12.23;9.50;;;15.30;99.90;;;;;;5072732;28;20295;-75
2021/09/17 02:19:26;;;;;;;11.95;9.85;;;15.40;99.90;;;;;;5072262;28;20201;-72
2021/09/17 02:21:55;;;;;;;11.25;9.68;;;15.40;99.90;;;;;;5072635;28;20200;-73
2021/09/17 02:24:24;;;;;;;13.15;10.10;;;15.40;99.90;;;;;;5072214;28;20197;-74
2021/09/17 02:26:52;;;;;;;12.00;9.93;;;15.50;99.90;;;;;;5072416;28;20209;-74
2021/09/17 02:29:20;;;;;;;13.18;11.63;;;15.40;99.90;;;;;;5072496;28;20197;-73
2021/09/17 02:31:49;;;;;;;13.52;11.50;;;15.40;99.90;;;;;;5076087;28;20200;-73
2021/09/17 02:34:17;;;;;;;12.25;10.15;;;15.50;99.90;;;;;;5076211;28;20223;-73
2021/09/17 02:36:44;;;;;;;13.13;10.45;;;15.50;99.90;;;;;;5076312;28;20200;-72
2021/09/17 02:39:14;;;;;;;13.18;10.15;;;15.50;99.90;;;;;;5075892;28;20205;-72
2021/09/17 02:41:42;;;;;;;11.80;10.52;;;15.50;99.90;;;;;;5076335;28;20214;-73
2021/09/17 02:44:10;;;;;;;10.77;9.68;;;15.50;99.90;;;;;;5075981;28;20205;-73
2021/09/17 02:46:39;;;;;;;11.15;9.63;;;15.50;99.90;;;;;;5075931;28;20292;-75
2021/09/17 02:49:08;;;;;;;11.40;10.05;;;15.50;99.90;;;;;;5075746;28;20211;-73
2021/09/17 02:51:35;;;;;;;11.68;10.15;;;15.50;99.90;;;;;;5075830;28;20203;-73
2021/09/17 02:54:03;;;;;;;11.75;10.52;;;15.50;99.90;;;;;;5075824;28;20230;-72
2021/09/17 02:56:31;;;;;;;10.93;9.77;;;15.50;99.90;;;;;;5075894;28;20236;-72
2021/09/17 02:58:59;;;;;;;12.23;9.98;;;15.50;99.90;;;;;;5076058;28;20232;-72
2021/09/17 03:01:27;;;;;;;12.75;9.63;;;15.50;99.90;;;;;;5075912;28;20200;-73
2021/09/17 03:03:55;;;;;;;13.02;10.35;;;15.40;99.90;;;;;;5075695;28;20208;-74
2021/09/17 03:06:24;;;;;;;12.00;9.88;;;15.40;99.90;;;;;;5075852;28;20306;-73
2021/09/17 03:08:52;;;;;;;12.40;10.10;;;15.40;99.90;;;;;;5055337;28;20752;-73
2021/09/17 03:11:20;;;;;;;12.30;10.30;;;15.30;99.90;;;;;;5055530;28;20881;-73
2021/09/17 03:13:48;;;;;;;14.00;10.55;;;15.30;99.90;;;;;;5055812;28;20292;-72
2021/09/17 03:16:16;;;;;;;11.45;9.88;;;15.30;99.90;;;;;;5055253;28;20670;-74
2021/09/17 03:18:43;;;;;;;12.50;9.57;;;15.30;99.90;;;;;;5055426;28;20293;-71
2021/09/17 03:21:11;;;;;;;14.80;10.50;;;15.40;99.90;;;;;;5055585;28;20197;-72
2021/09/17 03:23:40;;;;;;;10.60;9.05;;;15.40;99.90;;;;;;5054997;28;20215;-74
2021/09/17 03:26:08;;;;;;;11.05;9.80;;;15.40;99.90;;;;;;5055117;28;20653;-73
2021/09/17 03:28:36;;;;;;;12.18;9.98;;;15.30;99.90;;;;;;5055367;28;20297;-72
2021/09/17 03:31:04;;;;;;;10.45;9.40;;;15.30;99.90;;;;;;5054995;28;20562;-71
2021/09/17 03:33:32;;;;;;;10.88;9.52;;;15.30;99.90;;;;;;5055067;28;20301;-74
2021/09/17 03:36:00;;;;;;;11.20;9.73;;;15.30;99.90;;;;;;5055134;28;20213;-75
2021/09/17 03:38:27;;;;;;;13.43;10.13;;;15.30;99.90;;;;;;5055012;28;20287;-73
2021/09/17 03:40:57;;;;;;;10.77;9.68;;;15.30;99.90;;;;;;5054423;28;20205;-75
2021/09/17 03:43:24;;;;;;;10.35;9.07;;;15.30;99.90;;;;;;5055020;28;20296;-74
2021/09/17 03:45:52;;;;;;;9.35;8.45;;;15.20;99.90;;;;;;5054633;28;20724;-73
2021/09/17 03:48:20;;;;;;;11.02;9.00;;;15.30;99.90;;;;;;5055048;28;20208;-72
2021/09/17 03:50:48;;;;;;;10.85;9.52;;;15.20;99.90;;;;;;5054889;28;20201;-73
2021/09/17 03:53:16;;;;;;;10.05;8.57;;;15.20;99.90;;;;;;5054682;28;20296;-74
2021/09/17 03:55:44;;;;;;;12.80;9.18;;;15.20;99.90;;;;;;5054695;28;20544;-73
2021/09/17 03:58:13;;;;;;;10.05;9.05;;;15.20;99.90;;;;;;5054743;28;20288;-73
2021/09/17 04:00:40;;;;;;;9.85;8.85;;;15.30;99.90;;;;;;5054677;28;20296;-73
2021/09/17 04:03:08;;;;;;;10.98;8.63;;;15.30;99.90;;;;;;5054782;28;20202;-71
2021/09/17 04:05:36;;;;;;;10.27;8.48;;;15.30;99.90;;;;;;5054563;28;20236;-74
2021/09/17 04:08:04;;;;;;;11.25;8.52;;;15.20;99.90;;;;;;5068009;28;20722;-74
2021/09/17 04:10:32;;;;;;;9.10;8.20;;;15.30;99.90;;;;;;5074429;28;20196;-73
2021/09/17 04:13:00;;;;;;;9.10;8.20;;;15.20;99.90;;;;;;5074531;28;20217;-74
2021/09/17 04:15:30;;;;;;;8.82;7.93;;;15.10;99.90;;;;;;5074546;28;20315;-73
2021/09/17 04:17:57;;;;;;;8.18;7.25;;;15.20;99.90;;;;;;5074567;28;20200;-74
2021/09/17 04:20:25;;;;;;;8.18;7.28;;;15.10;99.90;;;;;;5074375;28;20203;-75
2021/09/17 04:22:53;;;;;;;8.35;7.45;;;15.10;99.90;;;;;;5073915;28;20292;-75
2021/09/17 04:25:21;;;;;;;8.98;7.28;;;15.20;99.90;;;;;;5073865;28;20704;-73
2021/09/17 04:27:49;;;;;;;8.63;7.63;;;15.10;99.90;;;;;;5073984;28;20314;-74
2021/09/17 04:30:18;;;;;;;10.85;7.07;;;15.10;99.90;;;;;;5074177;28;20201;-72
2021/09/17 04:32:47;;;;;;;8.90;6.78;;;15.10;99.90;;;;;;5074084;28;20207;-72
2021/09/17 04:35:16;;;;;;;7.20;6.50;;;15.10;99.90;;;;;;5073609;28;20685;-73
2021/09/17 04:37:46;;;;;;;8.23;6.22;;;15.10;99.90;;;;;;5073963;28;20247;-73
2021/09/17 04:40:16;;;;;;;8.68;6.60;;;15.10;99.90;;;;;;5073597;28;20197;-74
2021/09/17 04:42:44;;;;;;;7.10;6.25;;;15.10;99.90;;;;;;5074033;28;20201;-73
2021/09/17 04:45:12;;;;;;;9.02;6.30;;;15.10;99.90;;;;;;5073767;28;20197;-72
2021/09/17 04:47:40;;;;;;;7.28;6.53;;;15.10;99.90;;;;;;5073763;28;20204;-73
2021/09/17 04:50:11;;;;;;;7.03;5.70;;;15.10;99.90;;;;;;5073646;28;20203;-74
2021/09/17 04:52:44;;;;;;;8.13;6.63;;;15.10;99.90;;;;;;5072422;28;20622;-74
2021/09/17 04:55:12;;;;;;;7.93;6.90;;;15.10;99.90;;;;;;5073375;28;20680;-73
2021/09/17 04:57:40;;;;;;;7.80;5.65;;;15.10;99.90;;;;;;5073737;28;20288;-72
2021/09/17 05:00:08;;;;;;;7.57;6.43;;;15.10;99.90;;;;;;5073726;28;20201;-72
2021/09/17 05:02:36;;;;;;;7.40;6.45;;;15.00;99.90;;;;;;5073233;28;20211;-72
2021/09/17 05:05:05;;;;;;;8.02;6.10;;;15.00;99.90;;;;;;5072894;28;20208;-74
2021/09/17 05:07:35;;;;;;;6.32;5.63;;;15.00;99.90;;;;;;5072911;28;20324;-74
2021/09/17 05:10:04;;;;;;;8.20;6.20;;;15.00;99.90;;;;;;5073049;28;20292;-74
2021/09/17 05:12:32;;;;;;;8.00;5.75;;;15.00;99.90;;;;;;5073235;28;20202;-72
2021/09/17 05:15:00;;;;;;;6.22;5.55;;;15.10;99.90;;;;;;5073033;28;20204;-73
2021/09/17 05:17:28;;;;;;;8.18;5.70;;;15.10;99.90;;;;;;5073160;28;20220;-72
2021/09/17 05:19:56;;;;;;;7.43;5.88;;;15.10;99.90;;;;;;5073100;28;20201;-74
2021/09/17 05:22:25;;;;;;;9.77;6.28;;;15.20;99.90;;;;;;5073148;28;20204;-74
2021/09/17 05:24:54;;;;;;;7.25;5.88;;;15.20;99.90;;;;;;5073040;28;20294;-73
2021/09/17 05:27:22;;;;;;;6.38;5.78;;;15.20;99.90;;;;;;5073059;28;20284;-72
2021/09/17 05:29:50;;;;;;;6.78;6.07;;;15.20;99.90;;;;;;5073110;28;20648;-72
2021/09/17 05:32:18;;;;;;;7.03;5.65;;;15.20;99.90;;;;;;5072853;28;20203;-72
2021/09/17 05:34:46;;;;;;;9.77;5.97;;;15.20;99.90;;;;;;5072995;28;20201;-72
2021/09/17 05:37:13;;;;;;;7.15;5.28;;;15.30;99.90;;;;;;5072971;28;20559;-72
2021/09/17 05:39:41;;;;;;;5.97;5.38;;;15.30;99.90;;;;;;5072808;28;20292;-74
2021/09/17 05:42:10;;;;;;;7.18;5.63;;;15.30;99.90;;;;;;5072677;28;20664;-73
2021/09/17 05:44:38;;;;;;;7.45;6.18;;;15.30;99.90;;;;;;5072685;28;20207;-74
2021/09/17 05:47:06;;;;;;;6.28;5.45;;;15.50;99.90;;;;;;5072843;28;20201;-74
2021/09/17 05:49:34;;;;;;;6.05;5.32;;;15.50;99.90;;;;;;5072482;28;20216;-73
2021/09/17 05:52:02;;;;;;;7.55;5.93;;;15.40;99.90;;;;;;5072800;28;20230;-75
2021/09/17 05:54:32;;;;;;;6.60;5.40;;;15.40;99.90;;;;;;5072393;28;20224;-72
2021/09/17 05:57:00;;;;;;;5.78;5.22;;;15.40;99.90;;;;;;5072580;28;20338;-74
2021/09/17 05:59:29;;;;;;;6.78;5.18;;;15.40;99.90;;;;;;5072906;28;20216;-75
2021/09/17 06:01:57;;;;;;;5.80;5.20;;;15.50;99.90;;;;;;5072433;28;20236;-72
2021/09/17 06:04:25;;;;;;;6.40;4.80;;;15.60;99.90;;;;;;5072309;28;20232;-74
2021/09/17 06:06:53;;;;;;;7.82;5.40;;;15.60;99.90;;;;;;5072399;28;20229;-74
2021/09/17 06:09:20;;;;;;;6.15;4.60;;;15.60;99.90;;;;;;5072578;28;20561;-74
2021/09/17 06:11:48;;;;;;;5.40;4.90;;;15.60;99.90;;;;;;5072366;28;20664;-75
2021/09/17 06:14:16;;;;;;;5.43;4.05;;;15.60;99.90;;;;;;5072323;28;20578;-73
2021/09/17 06:16:45;;;;;;;5.10;4.60;;;15.60;99.90;;;;;;5072470;28;20429;-72
2021/09/17 06:19:13;;;;;;;4.45;3.92;;;15.60;99.90;;;;;;5072592;28;20201;-76
2021/09/17 06:21:41;;;;;;;6.03;4.45;;;15.60;99.90;;;;;;5072853;28;20238;-75
2021/09/17 06:24:09;;;;;;;6.10;4.30;;;15.50;99.90;;;;;;5072649;28;20233;-78
2021/09/17 06:26:37;;;;;;;8.10;5.47;;;15.40;99.90;;;;;;5072537;28;20288;-74
2021/09/17 06:29:06;;;;;;;6.97;5.88;;;15.30;99.90;;;;;;5072261;28;20207;-74
2021/09/17 06:31:35;;;;;;;7.88;5.53;;;15.20;99.90;;;;;;5072369;28;20226;-75
2021/09/17 06:34:05;;;;;;;6.57;5.25;;;15.20;99.90;;;;;;5072408;28;20204;-75
2021/09/17 06:36:33;;;;;;;5.32;4.82;;;15.10;99.90;;;;;;5072064;28;20227;-74
2021/09/17 06:39:01;;;;;;;7.25;4.72;;;15.00;99.90;;;;;;5072420;28;20201;-75
2021/09/17 06:41:30;;;;;;;5.80;5.28;;;15.00;99.90;;;;;;5072234;28;20207;-72
2021/09/17 06:43:58;;;;;;;6.68;5.07;;;15.00;99.90;;;;;;5071815;28;20657;-74
2021/09/17 06:46:26;;;;;;;6.95;5.70;;;15.00;99.90;;;;;;5072083;28;20287;-75
2021/09/17 06:48:54;;;;;;;10.52;6.85;;;15.00;99.90;;;;;;5083802;28;20204;-73
2021/09/17 06:51:25;;;;;;;7.68;6.10;;;15.00;99.90;;;;;;5091880;28;20239;-73
2021/09/17 06:53:53;;;;;;;8.93;6.63;;;15.10;99.90;;;;;;5092076;28;20200;-73
2021/09/17 06:56:21;;;;;;;8.75;6.70;;;15.10;99.90;;;;;;5091965;28;20688;-74
2021/09/17 06:58:49;;;;;;;9.18;6.97;;;15.10;99.90;;;;;;5092381;28;20211;-74
2021/09/17 07:01:17;;;;;;;7.80;7.03;;;15.10;99.90;;;;;;5092248;28;20200;-73
2021/09/17 07:03:46;;;;;;;9.60;8.18;;;15.10;99.90;;;;;;5092074;28;20240;-74
2021/09/17 07:06:14;;;;;;;8.73;7.45;;;15.10;99.90;;;;;;5091886;28;20208;-74
2021/09/17 07:08:43;;;;;;;8.27;7.30;;;15.20;99.90;;;;;;5091537;28;20250;-73
2021/09/17 07:11:11;;;;;;;9.45;7.60;;;15.20;99.90;;;;;;5092185;28;20210;-73
2021/09/17 07:13:39;;;;;;;8.27;7.47;;;15.20;99.90;;;;;;5092283;28;20206;-73
2021/09/17 07:16:07;;;;;;;9.75;8.00;;;15.30;99.90;;;;;;5092992;28;20199;-74
2021/09/17 07:18:35;;;;;;;7.28;6.57;;;15.20;99.90;;;;;;5095732;28;20310;-72
2021/09/17 07:21:03;;;;;;;5.97;5.32;;;15.20;99.90;;;;;;5095639;28;20200;-72
2021/09/17 07:23:31;;;;;;;6.93;4.85;;;15.20;99.90;;;;;;5095303;28;20664;-74
2021/09/17 07:26:00;;;;;;;6.85;5.40;;;15.20;99.90;;;;;;5097079;28;20206;-74
2021/09/17 07:28:31;;;;;;;6.22;5.35;;;15.40;99.90;;;;;;5095814;28;20196;-74
2021/09/17 07:31:00;;;;;;;6.97;5.68;;;15.50;99.90;;;;;;5095442;28;20180;-74
2021/09/17 07:33:27;;;;;;;6.03;5.43;;;15.70;99.90;;;;;;5095496;28;20287;-74
2021/09/17 07:35:55;;;;;;;6.53;5.82;;;15.90;99.90;;;;;;5095453;28;20206;-73
2021/09/17 07:38:23;;;;;;;6.95;5.55;;;16.10;99.90;;;;;;5094912;28;20703;-73
2021/09/17 07:40:51;;;;;;;8.15;7.32;;;16.30;99.90;;;;;;5095414;28;20200;-75
2021/09/17 07:43:20;;;;;;;6.60;6.00;;;16.50;99.90;;;;;;5095378;28;20196;-72
2021/09/17 07:45:48;;;;;;;8.85;5.82;;;16.60;99.90;;;;;;5095270;28;20200;-74
2021/09/17 07:48:16;;;;;;;7.75;6.95;;;16.70;99.90;;;;;;5095355;28;20609;-73
2021/09/17 07:50:44;;;;;;;10.30;6.75;;;16.80;99.90;;;;;;5095301;28;20208;-72
2021/09/17 07:53:12;;;;;;;7.97;6.43;;;16.90;99.90;;;;;;5095219;28;20200;-74
2021/09/17 07:55:40;;;;;;;7.93;7.20;;;16.80;99.90;;;;;;5094979;28;20199;-73
2021/09/17 07:58:07;;;;;;;9.60;6.57;;;16.70;99.90;;;;;;5095166;28;20216;-74
2021/09/17 08:00:37;;;;;;;8.25;6.70;;;16.80;99.90;;;;;;5094984;28;20203;-72
2021/09/17 08:03:05;;;;;;;7.50;6.35;;;16.80;99.90;;;;;;5094643;28;20219;-73
2021/09/17 08:05:33;;;;;;;7.78;5.97;;;16.80;99.90;;;;;;5094856;28;20203;-74
2021/09/17 08:08:01;;;;;;;6.93;5.82;;;16.90;99.90;;;;;;5081077;28;20566;-72
2021/09/17 08:10:30;;;;;;;6.32;5.50;;;17.00;99.90;;;;;;5074421;28;20208;-74
2021/09/17 08:12:58;;;;;;;5.72;5.07;;;17.00;99.90;;;;;;5074392;28;20201;-73
2021/09/17 08:15:26;;;;;;;5.13;4.47;;;17.00;99.90;;;;;;5074239;28;20535;-73
2021/09/17 08:17:55;;;;;;;6.25;4.70;;;17.10;99.90;;;;;;5074202;28;20672;-73
2021/09/17 08:20:23;;;;;;;5.70;4.50;;;17.00;99.90;;;;;;5074366;28;20236;-72
2021/09/17 08:22:51;;;;;;;6.13;4.32;;;17.10;99.90;;;;;;5074148;28;20212;-73
2021/09/17 08:25:18;;;;;;;4.85;4.10;;;17.10;99.90;;;;;;5074396;28;20201;-73
2021/09/17 08:27:46;;;;;;;3.95;3.65;;;17.20;99.90;;;;;;5074887;28;20211;-72
2021/09/17 08:30:14;;;;;;;5.05;4.38;;;17.30;99.90;;;;;;5074460;28;20306;-72
2021/09/17 08:32:42;;;;;;;4.40;3.80;;;17.40;99.90;;;;;;5074004;28;20292;-72
2021/09/17 08:35:13;;;;;;;4.78;3.85;;;17.50;99.90;;;;;;5074297;28;20200;-74
2021/09/17 08:37:41;;;;;;;3.92;3.53;;;17.50;99.90;;;;;;5074410;28;20775;-74
2021/09/17 08:40:13;;;;;;;5.35;3.63;;;17.60;99.90;;;;;;5074236;28;20189;-75
2021/09/17 08:42:42;;;;;;;4.88;3.38;;;17.60;99.90;;;;;;5074229;28;20208;-72
2021/09/17 08:45:11;;;;;;;4.07;3.60;;;17.70;99.90;;;;;;5072332;28;20219;-69
2021/09/17 08:47:39;;;;;;;4.88;3.13;;;17.80;99.90;;;;;;5071156;28;20189;-72
2021/09/17 08:50:07;;;;;;;3.67;3.30;;;17.80;99.90;;;;;;5071814;28;20303;-74
2021/09/17 08:52:37;;;;;;;7.53;3.30;;;17.80;99.90;;;;;;5070968;28;20259;-66
2021/09/17 08:55:07;;;;;;;3.47;3.05;;;17.90;99.90;;;;;;5070668;28;20689;-68
2021/09/17 08:57:35;;;;;;;3.28;2.88;;;18.00;99.90;;;;;;5070385;28;20231;-68
2021/09/17 09:00:03;;;;;;;5.20;3.10;;;17.90;99.90;;;;;;5070715;28;20303;-71
2021/09/17 09:02:32;;;;;;;2.75;2.55;;;18.00;99.90;;;;;;5070610;28;20287;-69
2021/09/17 09:05:03;;;;;;;3.92;2.60;;;18.10;99.90;;;;;;5070319;28;20201;-73
2021/09/17 09:07:32;;;;;;;3.72;2.50;;;18.30;99.90;;;;;;5079260;28;20279;-74
2021/09/17 09:10:08;;;;;;;3.72;2.45;;;18.50;99.90;;;;;;5090051;28;20204;-69
2021/09/17 09:12:39;;;;;;;3.95;2.17;;;18.50;99.90;;;;;;5090209;28;20184;-69
2021/09/17 09:15:16;;;;;;;3.47;2.63;;;18.70;99.90;;;;;;5090709;28;20709;-65
2021/09/17 09:17:44;;;;;;;3.42;2.30;;;18.60;99.90;;;;;;5090487;28;20250;-65
2021/09/17 09:20:23;;;;;;;3.47;2.40;;;18.50;99.90;;;;;;5089974;28;20196;-63
2021/09/17 09:23:12;;;;;;;2.60;2.40;;;18.50;99.90;;;;;;5090544;28;20295;-71
2021/09/17 09:25:54;;;;;;;2.70;2.47;;;18.50;99.90;;;;;;5090453;28;20190;-64
2021/09/17 09:28:24;;;;;;;3.45;2.30;;;18.50;99.90;;;;;;5090492;28;20180;-64
2021/09/17 09:30:53;;;;;;;5.85;2.70;;;18.20;99.90;;;;;;5090462;28;20563;-63
2021/09/17 09:33:22;;;;;;;2.97;2.30;;;18.30;99.90;;;;;;5090362;28;20223;-70
2021/09/17 09:35:59;;;;;;;4.45;3.17;;;18.30;99.90;;;;;;5089777;28;20211;-69
2021/09/17 09:38:39;;;;;;;2.53;2.20;;;18.20;99.90;;;;;;5089638;28;20221;-75
2021/09/17 09:41:11;;;;;;;3.83;2.63;;;18.10;99.90;;;;;;5089740;28;20279;-75
2021/09/17 09:43:41;;;;;;;3.50;2.40;;;18.10;99.90;;;;;;5089813;28;20188;-64
2021/09/17 09:46:24;;;;;;;2.80;2.60;;;18.00;99.90;;;;;;5089531;28;20207;-63
2021/09/17 09:49:09;;;;;;;2.85;2.63;;;17.80;99.90;;;;;;5089825;28;20195;-64
2021/09/17 09:51:39;;;;;;;3.58;2.53;;;17.70;99.90;;;;;;5087682;28;20235;-71
2021/09/17 09:54:08;;;;;;;4.63;2.40;;;17.70;99.90;;;;;;5089564;28;20282;-69
2021/09/17 09:56:38;;;;;;;4.40;2.67;;;17.60;99.90;;;;;;5089290;28;20210;-72
2021/09/17 09:59:08;;;;;;;2.92;2.50;;;17.70;99.90;;;;;;5089852;28;20672;-64
2021/09/17 10:01:38;;;;;;;4.28;2.90;;;17.80;99.90;;;;;;5089739;28;20286;-63
2021/09/17 10:04:07;;;;;;;2.65;2.45;;;18.00;99.90;;;;;;5089475;28;20188;-63
2021/09/17 10:06:37;;;;;;;2.33;2.13;;;18.20;99.90;;;;;;5089276;28;20200;-69
2021/09/17 10:09:06;;;;;;;2.88;2.40;;;18.30;99.90;;;;;;5089331;28;20544;-54
2021/09/17 10:11:37;;;;;;;3.22;2.33;;;18.40;99.90;;;;;;5089463;28;20210;-53
2021/09/17 10:14:08;;;;;;;3.05;2.28;;;18.50;99.90;;;;;;5089612;28;20191;-56
2021/09/17 10:16:37;;;;;;;4.30;2.40;;;18.50;99.90;;;;;;5089566;28;20608;-54
2021/09/17 10:19:05;;;;;;;2.13;1.73;;;18.50;99.90;;;;;;5089134;28;20749;-56
2021/09/17 10:21:54;;;;;;;2.58;1.40;;;18.30;99.90;;;;;;5089498;28;20206;-55
2021/09/17 10:24:37;;;;;;;2.35;1.25;;;18.20;99.90;;;;;;5089161;28;20180;-55
2021/09/17 10:27:11;;;;;;;1.20;1.00;;;18.10;99.90;;;;;;5089337;28;20624;-53
2021/09/17 10:29:40;;;;;;;1.27;0.88;;;18.20;99.90;;;;;;5089548;28;20192;-54
2021/09/17 10:32:29;;;;;;;1.52;0.80;;;18.10;99.90;;;;;;5089420;28;20419;-54
2021/09/17 10:35:04;;;;;;;1.45;1.00;;;18.00;99.90;;;;;;5088877;28;20227;-55
2021/09/17 10:37:53;;;;;;;1.17;1.00;;;18.00;99.90;;;;;;5089153;28;20184;-53
2021/09/17 10:40:49;;;;;;;1.58;1.00;;;18.20;99.90;;;;;;5086060;28;20226;-53
2021/09/17 10:43:27;;;;;;;1.80;1.10;;;18.50;99.90;;;;;;5089069;28;21442;-52
2021/09/17 10:45:57;;;;;;;1.25;1.13;;;18.70;99.90;;;;;;5089013;28;20186;-53
2021/09/17 10:48:27;;;;;;;1.95;1.00;;;18.90;99.90;;;;;;5089490;28;20211;-53
2021/09/17 10:51:01;;;;;;;1.60;1.13;;;19.10;99.90;;;;;;5089645;28;20287;-55
2021/09/17 10:54:04;;;;;;;1.63;1.25;;;19.30;99.90;;;;;;5092664;28;20196;-54
2021/09/17 10:57:04;;;;;;;1.55;1.38;;;19.70;99.90;;;;;;5092604;28;20220;-56
2021/09/17 10:59:50;;;;;;;2.08;1.25;;;19.90;99.90;;;;;;5092487;28;20222;-51
2021/09/17 11:02:18;;;;;;;1.15;1.00;;;19.90;99.90;;;;;;5092840;28;20188;-54
2021/09/17 11:05:15;;;;;;;2.45;1.10;;;19.90;99.90;;;;;;5092689;28;20192;-52
2021/09/17 11:07:43;;;;;;;1.58;1.10;;;19.90;99.90;;;;;;5092257;28;20224;-53
2021/09/17 11:10:25;;;;;;;2.40;1.10;;;19.80;99.90;;;;;;5092191;28;20239;-53
2021/09/17 11:13:06;;;;;;;1.35;1.10;;;19.70;99.90;;;;;;5092609;28;20605;-54
2021/09/17 11:15:35;;;;;;;1.13;0.90;;;19.60;99.90;;;;;;5092763;28;20270;-53
2021/09/17 11:18:08;;;;;;;2.20;1.13;;;19.50;99.90;;;;;;5092701;28;20291;-54
2021/09/17 11:20:36;;;;;;;2.85;1.10;;;19.30;99.90;;;;;;5092085;28;20679;-53
2021/09/17 11:23:06;;;;;;;3.28;1.10;;;19.20;99.90;;;;;;5092234;28;20742;-54
2021/09/17 11:25:37;;;;;;;1.50;1.13;;;19.10;99.90;;;;;;5092065;28;20200;-54
2021/09/17 11:28:07;;;;;;;3.90;1.20;;;19.00;99.90;;;;;;5092315;28;20267;-54
2021/09/17 11:30:37;;;;;;;2.00;1.20;;;18.70;99.90;;;;;;5092761;28;20729;-52
2021/09/17 11:33:19;;;;;;;1.48;1.17;;;18.50;99.90;;;;;;5092146;28;20652;-52
2021/09/17 11:35:48;;;;;;;2.33;1.45;;;18.50;99.90;;;;;;5091929;28;20271;-54
2021/09/17 11:38:24;;;;;;;1.20;1.10;;;18.50;99.90;;;;;;5091401;28;20753;-53
2021/09/17 11:40:53;;;;;;;2.22;1.80;;;18.60;99.90;;;;;;5091671;28;20211;-55
2021/09/17 11:43:21;;;;;;;3.47;1.67;;;18.70;99.90;;;;;;5091970;28;20199;-57
2021/09/17 11:45:53;;;;;;;3.25;1.80;;;18.80;99.90;;;;;;5091835;28;20299;-59
2021/09/17 11:48:22;;;;;;;1.77;1.67;;;18.80;99.90;;;;;;5091998;28;20224;-55
2021/09/17 11:50:51;;;;;;;1.60;1.50;;;18.70;99.90;;;;;;5091514;28;20202;-57
2021/09/17 11:53:19;;;;;;;3.25;1.50;;;18.70;99.90;;;;;;5091685;28;20206;-57
2021/09/17 11:55:47;;;;;;;2.30;1.45;;;18.70;99.90;;;;;;5092034;28;20243;-51
2021/09/17 11:58:15;;;;;;;2.85;1.48;;;18.70;99.90;;;;;;5091425;28;20208;-52
2021/09/17 12:00:43;;;;;;;1.70;1.48;;;18.60;99.90;;;;;;5091371;28;20323;-56
2021/09/17 12:03:13;;;;;;;1.90;1.30;;;18.60;99.90;;;;;;5091292;28;20236;-54
2021/09/17 12:05:43;;;;;;;2.53;1.25;;;18.70;99.90;;;;;;5091508;28;20698;-54
2021/09/17 12:08:12;;;;;;;2.90;1.80;;;18.70;99.90;;;;;;5091229;28;20347;-56
2021/09/17 12:10:44;;;;;;;2.10;1.90;;;18.80;99.90;;;;;;5091592;28;20239;-56
2021/09/17 12:13:14;;;;;;;1.98;1.80;;;18.80;99.90;;;;;;5091736;28;20184;-64
2021/09/17 12:15:43;;;;;;;2.30;1.67;;;18.80;99.90;;;;;;5091591;28;20224;-65
2021/09/17 12:18:18;;;;;;;2.33;1.80;;;18.80;99.90;;;;;;5091323;28;20210;-63
2021/09/17 12:20:47;;;;;;;2.22;1.67;;;18.80;99.90;;;;;;5090991;28;20214;-54
2021/09/17 12:23:17;;;;;;;1.83;1.73;;;18.90;99.90;;;;;;5091201;28;20200;-49
2021/09/17 12:25:47;;;;;;;3.75;2.05;;;19.10;99.90;;;;;;5091571;28;20584;-50
2021/09/17 12:28:18;;;;;;;2.95;1.83;;;19.10;99.90;;;;;;5091216;28;20239;-54
2021/09/17 12:30:48;;;;;;;3.28;2.13;;;19.20;99.90;;;;;;5091154;28;20181;-54
2021/09/17 12:33:22;;;;;;;4.22;2.58;;;19.40;99.90;;;;;;5090965;28;20611;-54
2021/09/17 12:35:51;;;;;;;3.10;2.17;;;19.30;99.90;;;;;;5091017;28;20585;-56
2021/09/17 12:38:21;;;;;;;2.70;1.67;;;19.10;99.90;;;;;;5090918;28;20265;-54
2021/09/17 12:40:50;;;;;;;3.15;2.40;;;18.90;99.90;;;;;;5090864;28;20228;-53
2021/09/17 12:43:41;;;;;;;2.95;2.63;;;18.60;99.90;;;;;;5090655;28;20211;-63
2021/09/17 12:46:10;;;;;;;7.28;2.95;;;18.60;99.90;;;;;;5090909;28;20224;-51
2021/09/17 12:48:42;;;;;;;2.20;1.90;;;18.50;99.90;;;;;;5090602;28;20682;-56
2021/09/17 12:51:16;;;;;;;3.40;2.03;;;18.40;99.90;;;;;;5090592;28;20225;-55
2021/09/17 12:53:46;;;;;;;4.53;2.33;;;18.30;99.90;;;;;;5090678;28;20221;-55
2021/09/17 12:56:17;;;;;;;2.33;2.13;;;18.10;99.90;;;;;;5090430;28;20609;-60
2021/09/17 12:58:45;;;;;;;4.72;2.20;;;18.00;99.90;;;;;;5090840;28;20271;-59